Time;durP1;ratioP1;P1;durP2;ratioP2;P2;SDS_P1;SDS_P2;PMS_P1;PMS_P2;Temp;Humidity;BMP_temperature;BMP_pressure;BME280_temperature;BME280_humidity;BME280_pressure;Samples;Min_cycle;Max_cycle;Signal;HPM_P1;HPM_P2
2023/08/13 00:01:58;;;;;;;4.40;2.87;;;19.50;99.90;;;;;;4170509;28;20298;-76
2023/08/13 00:04:00;;;;;;;4.10;2.87;;;19.50;99.90;;;;;;4168625;28;20317;-76
2023/08/13 00:06:02;;;;;;;3.27;2.47;;;19.50;99.90;;;;;;4170652;28;20313;-76
2023/08/13 00:08:04;;;;;;;5.50;3.27;;;19.50;99.90;;;;;;4171446;28;20218;-76
2023/08/13 00:10:06;;;;;;;5.23;2.97;;;19.40;99.90;;;;;;4174091;28;20306;-75
2023/08/13 00:12:08;;;;;;;4.27;2.67;;;19.40;99.90;;;;;;4170478;28;20294;-76
2023/08/13 00:14:10;;;;;;;6.47;2.97;;;19.40;99.90;;;;;;4172518;28;20241;-75
2023/08/13 00:16:12;;;;;;;3.47;2.47;;;19.40;99.90;;;;;;4169665;28;21005;-76
2023/08/13 00:18:15;;;;;;;3.90;2.30;;;19.40;99.90;;;;;;4173212;28;20238;-76
2023/08/13 00:20:17;;;;;;;4.27;2.70;;;19.40;99.90;;;;;;4172979;28;20272;-76
2023/08/13 00:22:19;;;;;;;3.23;2.40;;;19.40;99.90;;;;;;4171759;28;20210;-75
2023/08/13 00:24:21;;;;;;;5.87;2.83;;;19.40;99.90;;;;;;4168772;28;20555;-76
2023/08/13 00:26:22;;;;;;;4.00;2.60;;;19.40;99.90;;;;;;4170826;28;20223;-76
2023/08/13 00:28:24;;;;;;;4.03;2.20;;;19.40;99.90;;;;;;4166428;28;20221;-76
2023/08/13 00:30:26;;;;;;;3.13;2.50;;;19.40;99.90;;;;;;4171776;28;20246;-76
2023/08/13 00:32:28;;;;;;;5.30;2.60;;;19.40;99.90;;;;;;4168852;28;20242;-76
2023/08/13 00:34:32;;;;;;;3.27;2.50;;;19.40;99.90;;;;;;4172421;28;20220;-75
2023/08/13 00:36:33;;;;;;;4.13;2.93;;;19.30;99.90;;;;;;4170500;28;20313;-76
2023/08/13 00:38:35;;;;;;;4.40;2.40;;;19.30;99.90;;;;;;4169469;28;20234;-75
2023/08/13 00:40:40;;;;;;;3.37;2.33;;;19.30;99.90;;;;;;4169132;28;20266;-76
2023/08/13 00:42:43;;;;;;;4.73;2.47;;;19.20;99.90;;;;;;4168964;28;20217;-76
2023/08/13 00:44:46;;;;;;;3.37;2.60;;;19.20;99.90;;;;;;4169613;28;20218;-76
2023/08/13 00:46:57;;;;;;;3.43;1.93;;;19.20;99.90;;;;;;4170315;28;20214;-76
2023/08/13 00:49:00;;;;;;;5.73;2.27;;;19.20;99.90;;;;;;4166912;28;20213;-75
2023/08/13 00:51:07;;;;;;;4.40;2.17;;;19.20;99.90;;;;;;4174168;28;20198;-76
2023/08/13 00:53:10;;;;;;;3.03;2.30;;;19.20;99.90;;;;;;4170866;28;20214;-76
2023/08/13 00:55:13;;;;;;;2.63;2.10;;;19.20;99.90;;;;;;4169618;28;20329;-76
2023/08/13 00:57:15;;;;;;;2.40;1.80;;;19.20;99.90;;;;;;4170182;28;20203;-76
2023/08/13 00:59:16;;;;;;;2.77;2.40;;;19.20;99.90;;;;;;4170668;28;20206;-77
2023/08/13 01:01:18;;;;;;;2.40;2.10;;;19.20;99.90;;;;;;4168268;28;20226;-76
2023/08/13 01:03:19;;;;;;;4.00;2.00;;;19.20;99.90;;;;;;4169692;28;20577;-76
2023/08/13 01:05:24;;;;;;;2.40;1.97;;;19.20;99.90;;;;;;4174472;28;20223;-76
2023/08/13 01:07:37;;;;;;;2.30;1.90;;;19.20;99.90;;;;;;4168929;28;20199;-76
2023/08/13 01:09:45;;;;;;;4.43;1.90;;;19.20;99.90;;;;;;4169235;28;20206;-76
2023/08/13 01:11:58;;;;;;;2.63;2.07;;;19.20;99.90;;;;;;4171419;28;20206;-76
2023/08/13 01:14:06;;;;;;;3.13;1.90;;;19.30;99.90;;;;;;4168699;28;20245;-76
2023/08/13 01:16:10;;;;;;;2.57;2.03;;;19.30;99.90;;;;;;4170070;28;20254;-76
2023/08/13 01:18:14;;;;;;;3.07;2.10;;;19.20;99.90;;;;;;4167632;28;20321;-76
2023/08/13 01:20:18;;;;;;;2.90;2.10;;;19.20;99.90;;;;;;4170836;28;20285;-76
2023/08/13 01:22:25;;;;;;;3.27;1.83;;;19.20;99.90;;;;;;4170753;28;20261;-76
2023/08/13 01:24:27;;;;;;;2.70;2.10;;;19.20;99.90;;;;;;4170624;28;20213;-76
2023/08/13 01:26:35;;;;;;;2.57;2.00;;;19.20;99.90;;;;;;4169234;28;20238;-76
2023/08/13 01:28:44;;;;;;;2.23;1.93;;;19.20;99.90;;;;;;4167124;28;20203;-76
2023/08/13 01:30:50;;;;;;;3.00;2.00;;;19.20;99.90;;;;;;4168630;28;20218;-76
2023/08/13 01:32:56;;;;;;;2.03;1.83;;;19.20;99.90;;;;;;4167457;28;20288;-75
2023/08/13 01:34:59;;;;;;;6.47;2.00;;;19.20;99.90;;;;;;4171847;28;20598;-75
2023/08/13 01:37:02;;;;;;;2.43;2.10;;;19.10;99.90;;;;;;4169588;28;20241;-76
2023/08/13 01:39:06;;;;;;;2.00;1.70;;;19.10;99.90;;;;;;4170178;28;20235;-76
2023/08/13 01:41:11;;;;;;;3.93;2.10;;;19.10;99.90;;;;;;4172121;28;20214;-76
2023/08/13 01:43:15;;;;;;;3.63;2.00;;;19.00;99.90;;;;;;4171034;28;20658;-76
2023/08/13 01:45:17;;;;;;;2.97;2.40;;;19.00;99.90;;;;;;4169704;28;20262;-76
2023/08/13 01:47:21;;;;;;;2.47;2.10;;;19.00;99.90;;;;;;4167955;28;20297;-76
2023/08/13 01:49:23;;;;;;;2.87;2.33;;;19.00;99.90;;;;;;4170530;28;20207;-76
2023/08/13 01:51:25;;;;;;;2.70;2.23;;;19.00;99.90;;;;;;4170412;28;20207;-76
2023/08/13 01:53:27;;;;;;;2.40;1.87;;;18.90;99.90;;;;;;4167498;28;20207;-75
2023/08/13 01:55:30;;;;;;;3.53;2.13;;;18.90;99.90;;;;;;4169299;28;20619;-74
2023/08/13 01:57:32;;;;;;;3.37;2.30;;;18.90;99.90;;;;;;4167782;28;20578;-76
2023/08/13 01:59:35;;;;;;;2.70;2.10;;;18.90;99.90;;;;;;4169731;28;20233;-76
2023/08/13 02:01:37;;;;;;;3.80;2.13;;;18.90;99.90;;;;;;4169504;28;20313;-75
2023/08/13 02:03:39;;;;;;;2.67;2.27;;;18.80;99.90;;;;;;4169438;28;20668;-75
2023/08/13 02:05:44;;;;;;;2.00;1.77;;;18.80;99.90;;;;;;4169342;28;20222;-76
2023/08/13 02:07:49;;;;;;;3.27;2.60;;;18.80;99.90;;;;;;4164759;28;20206;-75
2023/08/13 02:09:51;;;;;;;2.77;2.20;;;18.80;99.90;;;;;;4170242;28;20707;-75
2023/08/13 02:11:55;;;;;;;3.37;2.47;;;18.80;99.90;;;;;;4168488;28;20239;-76
2023/08/13 02:13:57;;;;;;;2.63;2.10;;;18.80;99.90;;;;;;4168125;28;20235;-76
2023/08/13 02:16:02;;;;;;;2.77;2.17;;;18.80;99.90;;;;;;4169627;28;20636;-76
2023/08/13 02:18:05;;;;;;;2.90;2.27;;;18.80;99.90;;;;;;4167310;28;20239;-76
2023/08/13 02:20:10;;;;;;;3.43;2.27;;;18.80;99.90;;;;;;4169068;28;20340;-76
2023/08/13 02:22:11;;;;;;;3.27;2.30;;;18.80;99.90;;;;;;4170898;28;20718;-76
2023/08/13 02:24:13;;;;;;;4.47;2.77;;;18.80;99.90;;;;;;4170401;28;20296;-76
2023/08/13 02:26:14;;;;;;;4.13;3.23;;;18.90;99.90;;;;;;4168399;28;20601;-76
2023/08/13 02:28:18;;;;;;;3.73;2.80;;;18.90;99.90;;;;;;4168351;28;20610;-76
2023/08/13 02:30:20;;;;;;;6.03;3.60;;;18.90;99.90;;;;;;4164903;28;20299;-76
2023/08/13 02:32:22;;;;;;;5.43;3.50;;;18.90;99.90;;;;;;4168893;28;20221;-76
2023/08/13 02:34:24;;;;;;;4.30;3.40;;;18.90;99.90;;;;;;4169879;28;20301;-76
2023/08/13 02:36:26;;;;;;;4.47;3.00;;;18.80;99.90;;;;;;4166956;28;20284;-76
2023/08/13 02:38:28;;;;;;;4.03;3.07;;;18.80;99.90;;;;;;4172426;28;20229;-76
2023/08/13 02:40:30;;;;;;;4.03;2.47;;;18.80;99.90;;;;;;4172898;28;20294;-76
2023/08/13 02:42:32;;;;;;;3.43;2.40;;;18.80;99.90;;;;;;4172584;28;20605;-76
2023/08/13 02:44:35;;;;;;;3.23;2.30;;;18.80;99.90;;;;;;4172834;28;20305;-75
2023/08/13 02:46:37;;;;;;;3.93;2.77;;;18.80;99.90;;;;;;4170833;28;20797;-76
2023/08/13 02:48:39;;;;;;;2.47;2.00;;;18.80;99.90;;;;;;4172891;28;20256;-76
2023/08/13 02:50:41;;;;;;;3.70;2.33;;;18.80;99.90;;;;;;4177163;28;20210;-75
2023/08/13 02:52:42;;;;;;;3.70;2.33;;;18.80;99.90;;;;;;4172866;28;20206;-76
2023/08/13 02:54:44;;;;;;;4.03;2.57;;;18.80;99.90;;;;;;4169925;28;20302;-76
2023/08/13 02:56:46;;;;;;;3.67;2.67;;;18.80;99.90;;;;;;4173979;28;20215;-76
2023/08/13 02:58:48;;;;;;;3.87;2.40;;;18.80;99.90;;;;;;4174095;28;20265;-76
2023/08/13 03:00:52;;;;;;;3.37;2.60;;;18.80;99.90;;;;;;4176038;28;20268;-75
2023/08/13 03:02:54;;;;;;;3.87;2.60;;;18.90;99.90;;;;;;4174301;28;20218;-76
2023/08/13 03:04:58;;;;;;;5.90;2.90;;;18.80;99.90;;;;;;4173157;28;20250;-76
2023/08/13 03:07:00;;;;;;;4.67;2.70;;;18.80;99.90;;;;;;4172625;28;20249;-75
2023/08/13 03:09:02;;;;;;;4.03;2.83;;;18.80;99.90;;;;;;4170797;28;20264;-76
2023/08/13 03:11:03;;;;;;;3.27;2.17;;;18.80;99.90;;;;;;4171842;28;20210;-75
2023/08/13 03:13:08;;;;;;;4.33;2.33;;;18.90;99.90;;;;;;4168947;28;20765;-75
2023/08/13 03:15:11;;;;;;;2.80;2.30;;;18.80;99.90;;;;;;4177425;28;20672;-76
2023/08/13 03:17:16;;;;;;;3.23;2.57;;;18.90;99.90;;;;;;4172675;28;20218;-76
2023/08/13 03:19:18;;;;;;;3.37;2.27;;;18.90;99.90;;;;;;4176858;28;20684;-76
2023/08/13 03:21:22;;;;;;;3.43;2.60;;;18.90;99.90;;;;;;4170873;28;20242;-76
2023/08/13 03:23:24;;;;;;;3.60;2.17;;;18.80;99.90;;;;;;4171724;28;20207;-76
2023/08/13 03:25:31;;;;;;;2.97;2.40;;;18.90;99.90;;;;;;4174228;28;20285;-76
2023/08/13 03:27:33;;;;;;;2.83;2.03;;;18.90;99.90;;;;;;4170966;28;20221;-76
2023/08/13 03:29:35;;;;;;;2.67;2.20;;;18.90;99.90;;;;;;4169471;28;20199;-76
2023/08/13 03:31:39;;;;;;;2.83;2.27;;;18.90;99.90;;;;;;4172373;28;20203;-76
2023/08/13 03:33:42;;;;;;;2.67;2.20;;;18.80;99.90;;;;;;4173071;28;20230;-77
2023/08/13 03:35:45;;;;;;;3.47;2.60;;;18.80;99.90;;;;;;4171828;28;20287;-76
2023/08/13 03:37:47;;;;;;;3.80;2.80;;;18.80;99.90;;;;;;4172813;28;20215;-77
2023/08/13 03:39:51;;;;;;;4.60;3.00;;;18.80;99.90;;;;;;4169908;28;20250;-77
2023/08/13 03:41:53;;;;;;;4.67;2.90;;;18.80;99.90;;;;;;4169140;28;20249;-76
2023/08/13 03:43:55;;;;;;;4.93;3.17;;;18.80;99.90;;;;;;4175375;28;20237;-77
2023/08/13 03:45:57;;;;;;;5.87;3.40;;;18.80;99.90;;;;;;4171221;28;20309;-76
2023/08/13 03:47:59;;;;;;;5.60;3.50;;;18.70;99.90;;;;;;4176225;28;20224;-76
2023/08/13 03:50:02;;;;;;;5.80;3.17;;;18.80;99.90;;;;;;4170720;28;20203;-76
2023/08/13 03:52:05;;;;;;;3.73;2.90;;;18.70;99.90;;;;;;4172603;28;20215;-76
2023/08/13 03:54:05;;;;;;;4.97;2.67;;;18.70;99.90;;;;;;4171264;28;20221;-76
2023/08/13 03:56:08;;;;;;;3.57;2.83;;;18.70;99.90;;;;;;4170688;28;20238;-76
2023/08/13 03:58:10;;;;;;;3.63;2.30;;;18.60;99.90;;;;;;4170987;28;20234;-77
2023/08/13 04:00:12;;;;;;;3.83;2.67;;;18.60;99.90;;;;;;4170722;28;20235;-77
2023/08/13 04:02:17;;;;;;;3.70;2.47;;;18.50;99.90;;;;;;4176149;28;20237;-77
2023/08/13 04:04:19;;;;;;;3.73;2.50;;;18.60;99.90;;;;;;4170892;28;20718;-77
2023/08/13 04:06:22;;;;;;;3.00;2.40;;;18.50;99.90;;;;;;4175083;28;20661;-77
2023/08/13 04:08:27;;;;;;;3.03;2.20;;;18.50;99.90;;;;;;4169544;28;20660;-77
2023/08/13 04:10:32;;;;;;;2.73;2.17;;;18.50;99.90;;;;;;4171770;28;20207;-77
2023/08/13 04:12:37;;;;;;;3.03;2.37;;;18.60;99.90;;;;;;4166094;28;20242;-77
2023/08/13 04:14:39;;;;;;;3.90;2.40;;;18.60;99.90;;;;;;4168926;28;20207;-77
2023/08/13 04:16:41;;;;;;;2.80;2.00;;;18.60;99.90;;;;;;4172403;28;20305;-77
2023/08/13 04:18:43;;;;;;;2.87;2.33;;;18.60;99.90;;;;;;4169844;28;20235;-77
2023/08/13 04:20:45;;;;;;;3.13;2.37;;;18.60;99.90;;;;;;4171448;28;20199;-77
2023/08/13 04:22:50;;;;;;;3.13;2.13;;;18.70;99.90;;;;;;4172536;28;20306;-77
2023/08/13 04:24:52;;;;;;;3.37;2.27;;;18.70;99.90;;;;;;4172490;28;20206;-77
2023/08/13 04:26:53;;;;;;;3.17;2.37;;;18.70;99.90;;;;;;4170915;28;20233;-77
2023/08/13 04:28:57;;;;;;;3.20;2.40;;;18.70;99.90;;;;;;4175264;28;20726;-77
2023/08/13 04:30:59;;;;;;;3.40;2.70;;;18.70;99.90;;;;;;4175135;28;20224;-77
2023/08/13 04:33:03;;;;;;;2.67;2.20;;;18.80;99.90;;;;;;4170072;28;20723;-77
2023/08/13 04:35:06;;;;;;;4.50;2.90;;;18.80;99.90;;;;;;4168262;28;20240;-77
2023/08/13 04:37:08;;;;;;;4.67;3.23;;;18.80;99.90;;;;;;4170476;28;20864;-77
2023/08/13 04:39:17;;;;;;;3.63;2.90;;;18.90;99.90;;;;;;4170704;28;20695;-77
2023/08/13 04:41:22;;;;;;;4.77;3.50;;;19.00;99.90;;;;;;4171928;28;20305;-77
2023/08/13 04:43:24;;;;;;;4.47;2.67;;;19.00;99.90;;;;;;4173756;28;20210;-77
2023/08/13 04:45:26;;;;;;;2.70;2.20;;;19.00;99.90;;;;;;4171286;28;20318;-77
2023/08/13 04:47:28;;;;;;;3.27;2.40;;;19.00;99.90;;;;;;4170987;28;20302;-77
2023/08/13 04:49:36;;;;;;;2.60;2.27;;;19.10;99.90;;;;;;4165319;28;20294;-77
2023/08/13 04:51:38;;;;;;;3.07;2.30;;;19.00;99.90;;;;;;4170061;28;20660;-77
2023/08/13 04:53:39;;;;;;;4.60;2.53;;;19.10;99.90;;;;;;4173009;28;20279;-77
2023/08/13 04:55:43;;;;;;;3.00;2.33;;;19.10;99.90;;;;;;4176674;28;20252;-77
2023/08/13 04:57:44;;;;;;;2.73;2.13;;;19.10;99.90;;;;;;4173701;28;20463;-77
2023/08/13 04:59:45;;;;;;;2.60;2.10;;;19.10;99.90;;;;;;4169007;28;20223;-78
2023/08/13 05:01:48;;;;;;;3.90;2.50;;;19.10;99.90;;;;;;4170485;28;20668;-78
2023/08/13 05:03:50;;;;;;;3.50;2.50;;;19.20;99.90;;;;;;4169993;28;20294;-77
2023/08/13 05:05:52;;;;;;;4.00;2.40;;;19.20;99.90;;;;;;4171047;28;20288;-77
2023/08/13 05:07:53;;;;;;;3.60;2.60;;;19.20;99.90;;;;;;4175276;28;20235;-76
2023/08/13 05:09:58;;;;;;;3.40;2.60;;;19.20;99.90;;;;;;4169439;28;20326;-77
2023/08/13 05:12:02;;;;;;;4.00;2.70;;;19.20;99.90;;;;;;4170646;28;20221;-78
2023/08/13 05:14:04;;;;;;;3.07;2.60;;;19.20;99.90;;;;;;4165736;28;20214;-77
2023/08/13 05:16:06;;;;;;;4.60;2.77;;;19.20;99.90;;;;;;4171858;28;20254;-78
2023/08/13 05:18:08;;;;;;;4.27;2.90;;;19.30;99.90;;;;;;4168438;28;20265;-78
2023/08/13 05:20:10;;;;;;;3.20;2.47;;;19.30;99.90;;;;;;4173070;28;20258;-77
2023/08/13 05:22:12;;;;;;;3.50;2.50;;;19.30;99.90;;;;;;4170500;28;20218;-77
2023/08/13 05:24:14;;;;;;;4.53;2.53;;;19.40;99.90;;;;;;4168919;28;20214;-75
2023/08/13 05:26:18;;;;;;;3.97;3.00;;;19.40;99.90;;;;;;4174081;28;20231;-77
2023/08/13 05:28:21;;;;;;;4.77;2.67;;;19.40;99.90;;;;;;4170360;28;20209;-77
2023/08/13 05:30:23;;;;;;;2.77;2.47;;;19.40;99.90;;;;;;4168212;28;20210;-76
2023/08/13 05:32:25;;;;;;;3.10;2.50;;;19.40;99.90;;;;;;4168790;28;20241;-76
2023/08/13 05:34:27;;;;;;;3.10;2.60;;;19.40;99.90;;;;;;4172410;28;20211;-76
2023/08/13 05:36:29;;;;;;;3.30;2.50;;;19.40;99.90;;;;;;4169522;28;20272;-76
2023/08/13 05:38:36;;;;;;;2.77;2.37;;;19.40;99.90;;;;;;4169790;28;20234;-76
2023/08/13 05:40:38;;;;;;;3.20;2.60;;;19.40;99.90;;;;;;4171188;28;20202;-77
2023/08/13 05:42:40;;;;;;;3.43;2.60;;;19.40;99.90;;;;;;4172062;28;20310;-76
2023/08/13 05:44:43;;;;;;;3.60;2.40;;;19.40;99.90;;;;;;4166996;28;20214;-76
2023/08/13 05:46:45;;;;;;;2.40;2.20;;;19.40;99.90;;;;;;4166708;28;20235;-76
2023/08/13 05:48:47;;;;;;;2.70;2.17;;;19.40;99.90;;;;;;4168090;28;20215;-76
2023/08/13 05:50:49;;;;;;;3.90;2.30;;;19.40;99.90;;;;;;4167248;28;20302;-76
2023/08/13 05:52:51;;;;;;;4.03;2.27;;;19.40;99.90;;;;;;4173190;28;20199;-75
2023/08/13 05:54:52;;;;;;;4.10;2.30;;;19.40;99.90;;;;;;4170305;28;20207;-76
2023/08/13 05:56:57;;;;;;;3.13;2.30;;;19.40;99.90;;;;;;4172295;28;20367;-75
2023/08/13 05:58:59;;;;;;;3.00;2.13;;;19.40;99.90;;;;;;4175100;28;20241;-75
2023/08/13 06:01:03;;;;;;;2.90;1.80;;;19.40;99.90;;;;;;4167254;28;20265;-77
2023/08/13 06:03:05;;;;;;;2.63;2.00;;;19.40;99.90;;;;;;4169614;28;20245;-76
2023/08/13 06:05:08;;;;;;;2.57;2.00;;;19.40;99.90;;;;;;4164241;28;20231;-76
2023/08/13 06:07:13;;;;;;;3.20;2.00;;;19.40;99.90;;;;;;4171290;28;20222;-75
2023/08/13 06:09:18;;;;;;;1.90;1.70;;;19.50;99.90;;;;;;4168797;28;20268;-76
2023/08/13 06:11:20;;;;;;;1.73;1.60;;;19.50;99.90;;;;;;4171462;28;20345;-75
2023/08/13 06:13:22;;;;;;;3.30;1.97;;;19.50;99.90;;;;;;4167679;28;20319;-76
2023/08/13 06:15:24;;;;;;;2.33;1.80;;;19.60;99.90;;;;;;4170407;28;20305;-77
2023/08/13 06:17:27;;;;;;;4.17;1.53;;;19.60;99.90;;;;;;4166123;28;20273;-76
2023/08/13 06:19:29;;;;;;;2.00;1.60;;;19.60;99.90;;;;;;4168108;28;20802;-78
2023/08/13 06:21:31;;;;;;;2.17;1.50;;;19.70;99.90;;;;;;4168178;28;20214;-78
2023/08/13 06:23:33;;;;;;;2.20;1.63;;;19.80;99.90;;;;;;4170745;28;20209;-77
2023/08/13 06:25:34;;;;;;;2.20;1.60;;;19.90;99.90;;;;;;4167251;28;20325;-78
2023/08/13 06:27:36;;;;;;;2.60;1.60;;;19.90;99.90;;;;;;4170491;28;20234;-77
2023/08/13 06:29:38;;;;;;;2.00;1.60;;;20.10;99.90;;;;;;4170677;28;20219;-77
2023/08/13 06:31:39;;;;;;;1.60;1.50;;;20.20;99.90;;;;;;4170898;28;20267;-77
2023/08/13 06:33:42;;;;;;;1.97;1.37;;;20.30;99.90;;;;;;4171325;28;20288;-78
2023/08/13 06:35:44;;;;;;;3.30;1.57;;;20.40;99.90;;;;;;4167781;28;20749;-78
2023/08/13 06:37:46;;;;;;;4.07;2.00;;;20.50;99.90;;;;;;4172417;28;20244;-78
2023/08/13 06:39:49;;;;;;;1.73;1.60;;;20.50;99.90;;;;;;4171963;28;20253;-77
2023/08/13 06:41:51;;;;;;;2.00;1.70;;;20.60;99.90;;;;;;4171289;28;20212;-77
2023/08/13 06:43:53;;;;;;;2.20;1.70;;;20.60;99.90;;;;;;4170670;28;20225;-76
2023/08/13 06:45:55;;;;;;;5.27;2.20;;;20.70;99.90;;;;;;4168327;28;20228;-76
2023/08/13 06:47:58;;;;;;;2.10;1.70;;;20.80;99.90;;;;;;4167248;28;20573;-77
2023/08/13 06:50:01;;;;;;;2.53;1.90;;;20.80;99.90;;;;;;4170223;28;20210;-76
2023/08/13 06:52:03;;;;;;;2.70;1.87;;;20.80;99.90;;;;;;4168532;28;20220;-76
2023/08/13 06:54:06;;;;;;;2.67;1.70;;;20.90;99.90;;;;;;4171401;28;20208;-77
2023/08/13 06:56:08;;;;;;;2.60;1.70;;;20.90;99.90;;;;;;4168925;28;20246;-78
2023/08/13 06:58:10;;;;;;;2.97;1.87;;;21.00;99.90;;;;;;4170427;28;20311;-78
2023/08/13 07:00:13;;;;;;;3.07;1.97;;;21.00;99.90;;;;;;4169251;28;20257;-77
2023/08/13 07:02:18;;;;;;;2.60;1.60;;;21.10;99.90;;;;;;4167840;28;20251;-77
2023/08/13 07:04:20;;;;;;;2.47;1.80;;;21.10;99.90;;;;;;4171444;28;20688;-78
2023/08/13 07:06:22;;;;;;;3.80;1.67;;;21.20;99.90;;;;;;4167197;28;20322;-78
2023/08/13 07:08:24;;;;;;;1.50;1.40;;;21.20;99.90;;;;;;4172869;28;20215;-78
2023/08/13 07:10:31;;;;;;;3.20;1.83;;;21.30;99.90;;;;;;4166415;28;20213;-78
2023/08/13 07:12:32;;;;;;;2.60;1.70;;;21.40;99.90;;;;;;4173768;28;20220;-77
2023/08/13 07:14:37;;;;;;;1.97;1.70;;;21.40;99.90;;;;;;4171783;28;20277;-78
2023/08/13 07:16:39;;;;;;;3.00;1.80;;;21.50;99.90;;;;;;4175468;28;20245;-78
2023/08/13 07:18:42;;;;;;;2.27;1.70;;;21.60;99.90;;;;;;4176832;28;20248;-78
2023/08/13 07:20:45;;;;;;;2.80;1.60;;;21.70;99.90;;;;;;4173825;28;20279;-78
2023/08/13 07:22:49;;;;;;;2.27;1.40;;;21.80;99.90;;;;;;4173098;28;20214;-78
2023/08/13 07:24:51;;;;;;;1.70;1.57;;;21.80;99.90;;;;;;4171700;28;20211;-78
2023/08/13 07:26:52;;;;;;;2.43;1.70;;;21.90;99.90;;;;;;4172550;28;20893;-78
2023/08/13 07:28:54;;;;;;;2.13;1.60;;;22.00;99.90;;;;;;4172744;28;20210;-78
2023/08/13 07:30:58;;;;;;;2.47;1.30;;;22.00;99.90;;;;;;4175680;28;20304;-78
2023/08/13 07:33:00;;;;;;;1.47;1.30;;;22.10;99.90;;;;;;4183537;28;20210;-78
2023/08/13 07:35:06;;;;;;;4.23;1.83;;;22.10;99.90;;;;;;4175549;28;20739;-78
2023/08/13 07:37:12;;;;;;;1.67;1.57;;;22.20;99.90;;;;;;4173256;28;20217;-78
2023/08/13 07:39:16;;;;;;;2.40;1.40;;;22.20;99.90;;;;;;4169139;28;20230;-79
2023/08/13 07:41:18;;;;;;;3.13;1.70;;;22.30;99.90;;;;;;4176761;28;20257;-80
2023/08/13 07:43:20;;;;;;;1.73;1.60;;;22.30;99.90;;;;;;4176100;28;20202;-78
2023/08/13 07:45:23;;;;;;;2.17;1.50;;;22.40;99.90;;;;;;4174125;28;20242;-78
2023/08/13 07:47:24;;;;;;;3.00;1.57;;;22.50;99.90;;;;;;4174950;28;20265;-78
2023/08/13 07:49:27;;;;;;;1.97;1.50;;;22.60;99.90;;;;;;4174791;28;20202;-78
2023/08/13 07:51:28;;;;;;;2.43;1.73;;;22.70;99.90;;;;;;4168380;28;20219;-78
2023/08/13 07:53:32;;;;;;;3.93;1.80;;;22.70;99.90;;;;;;4169202;28;20219;-77
2023/08/13 07:55:35;;;;;;;2.00;1.50;;;22.70;99.90;;;;;;4171975;28;20747;-77
2023/08/13 07:57:37;;;;;;;2.73;1.97;;;22.80;99.90;;;;;;4173883;28;20234;-77
2023/08/13 07:59:39;;;;;;;2.47;2.00;;;22.80;99.90;;;;;;4176075;28;20211;-77
2023/08/13 08:01:42;;;;;;;2.90;1.70;;;22.90;99.90;;;;;;4167774;28;20210;-78
2023/08/13 08:03:44;;;;;;;1.97;1.63;;;22.90;99.90;;;;;;4173054;28;20664;-77
2023/08/13 08:05:47;;;;;;;2.67;1.60;;;23.00;99.90;;;;;;4172603;28;20223;-78
2023/08/13 08:07:49;;;;;;;1.40;1.30;;;23.10;99.90;;;;;;4172978;28;20214;-80
2023/08/13 08:09:51;;;;;;;2.47;1.57;;;23.20;99.90;;;;;;4178442;28;20223;-79
2023/08/13 08:11:55;;;;;;;1.90;1.63;;;23.30;99.90;;;;;;4175385;28;20222;-80
2023/08/13 08:13:56;;;;;;;1.63;1.40;;;23.30;99.90;;;;;;4174135;28;20313;-79
2023/08/13 08:15:58;;;;;;;1.67;1.57;;;23.40;99.90;;;;;;4176095;28;20222;-78
2023/08/13 08:18:00;;;;;;;2.30;1.60;;;23.40;99.90;;;;;;4174880;28;20238;-79
2023/08/13 08:20:02;;;;;;;1.90;1.70;;;23.50;99.90;;;;;;4175701;28;20296;-80
2023/08/13 08:22:05;;;;;;;2.10;1.40;;;23.60;99.90;;;;;;4179775;28;20264;-79
2023/08/13 08:24:07;;;;;;;2.03;1.40;;;23.70;99.90;;;;;;4173033;28;20662;-80
2023/08/13 08:26:16;;;;;;;3.03;1.70;;;23.70;99.90;;;;;;4175783;28;20257;-79
2023/08/13 08:29:02;;;;;;;2.50;1.73;;;23.80;99.90;;;;;;4174251;28;20591;-80
2023/08/13 08:31:04;;;;;;;2.73;1.40;;;23.90;99.90;;;;;;4176069;28;20194;-79
2023/08/13 08:33:06;;;;;;;4.13;1.50;;;24.00;99.90;;;;;;4178184;28;20309;-81
2023/08/13 08:35:08;;;;;;;3.47;1.63;;;24.10;99.90;;;;;;4177471;28;20325;-79
2023/08/13 08:37:13;;;;;;;3.70;1.73;;;24.10;99.90;;;;;;4170938;28;20710;-79
2023/08/13 08:39:15;;;;;;;1.80;1.20;;;24.20;99.90;;;;;;4172757;28;20198;-79
2023/08/13 08:41:19;;;;;;;1.60;1.40;;;24.30;99.90;;;;;;4173192;28;20592;-80
2023/08/13 08:43:26;;;;;;;3.90;1.50;;;24.50;99.90;;;;;;4175195;28;20206;-79
2023/08/13 08:45:30;;;;;;;1.60;1.50;;;24.60;99.90;;;;;;4176213;28;20227;-79
2023/08/13 08:47:35;;;;;;;2.90;1.50;;;24.80;99.90;;;;;;4174626;28;20306;-79
2023/08/13 08:49:38;;;;;;;2.27;1.40;;;24.80;99.90;;;;;;4173759;28;20214;-79
2023/08/13 08:51:40;;;;;;;1.90;1.60;;;24.90;99.90;;;;;;4175785;28;20645;-77
2023/08/13 08:53:43;;;;;;;1.70;1.50;;;25.00;99.90;;;;;;4179633;28;20302;-80
2023/08/13 08:55:47;;;;;;;2.27;1.70;;;25.10;99.90;;;;;;4175254;28;20269;-77
2023/08/13 08:57:49;;;;;;;3.27;1.60;;;25.20;99.90;;;;;;4173709;28;20218;-77
2023/08/13 08:59:51;;;;;;;1.70;1.50;;;25.20;99.90;;;;;;4171558;28;20705;-80
2023/08/13 09:01:55;;;;;;;3.33;1.60;;;25.20;99.90;;;;;;4168945;28;20260;-77
2023/08/13 09:03:57;;;;;;;2.77;2.10;;;25.20;99.90;;;;;;4174479;28;20309;-78
2023/08/13 09:05:59;;;;;;;4.97;2.13;;;25.20;99.90;;;;;;4168531;28;20731;-77
2023/08/13 09:08:05;;;;;;;2.50;1.80;;;25.20;99.90;;;;;;4175332;28;20564;-77
2023/08/13 09:10:07;;;;;;;1.73;1.30;;;25.20;99.90;;;;;;4169584;28;20302;-77
2023/08/13 09:12:10;;;;;;;4.07;1.57;;;25.30;99.90;;;;;;4178751;28;20210;-77
2023/08/13 09:14:11;;;;;;;1.53;1.43;;;25.40;99.90;;;;;;4170372;28;20239;-77
2023/08/13 09:16:13;;;;;;;2.23;1.50;;;25.50;99.90;;;;;;4174397;28;20233;-78
2023/08/13 09:18:19;;;;;;;1.57;1.40;;;25.60;99.90;;;;;;4173438;28;20301;-78
2023/08/13 09:20:27;;;;;;;2.30;1.40;;;25.70;99.90;;;;;;4173903;28;20251;-76
2023/08/13 09:22:35;;;;;;;1.70;1.40;;;25.70;99.90;;;;;;4172532;28;20649;-77
2023/08/13 09:24:38;;;;;;;1.40;1.30;;;25.90;99.90;;;;;;4174853;28;20213;-77
2023/08/13 09:26:42;;;;;;;2.30;1.30;;;25.90;99.90;;;;;;4171515;28;20313;-76
2023/08/13 09:28:44;;;;;;;1.87;1.30;;;26.00;99.90;;;;;;4170807;28;20218;-78
2023/08/13 09:30:46;;;;;;;1.70;1.50;;;26.10;99.90;;;;;;4169938;28;20233;-78
2023/08/13 09:32:50;;;;;;;2.07;1.80;;;26.20;99.90;;;;;;4172388;28;20215;-77
2023/08/13 09:34:54;;;;;;;6.10;3.80;;;26.20;99.90;;;;;;4174358;28;20209;-77
2023/08/13 09:36:57;;;;;;;2.27;1.90;;;26.20;99.90;;;;;;4180646;28;20207;-77
2023/08/13 09:38:59;;;;;;;2.00;1.70;;;26.20;99.90;;;;;;4169161;28;20215;-77
2023/08/13 09:41:01;;;;;;;2.93;1.47;;;26.20;99.90;;;;;;4173485;28;20230;-78
2023/08/13 09:43:08;;;;;;;4.23;1.50;;;26.30;99.90;;;;;;4170075;28;20225;-78
2023/08/13 09:45:12;;;;;;;4.30;1.80;;;26.20;99.90;;;;;;4166190;28;20227;-77
2023/08/13 09:47:17;;;;;;;3.10;1.90;;;26.20;99.90;;;;;;4176959;28;20245;-76
2023/08/13 09:49:23;;;;;;;1.83;1.50;;;26.10;99.90;;;;;;4173578;28;20287;-76
2023/08/13 09:51:32;;;;;;;2.50;1.80;;;26.10;99.90;;;;;;4165893;28;20211;-76
2023/08/13 09:53:36;;;;;;;3.13;1.97;;;26.10;99.90;;;;;;4170318;28;20652;-79
2023/08/13 09:55:46;;;;;;;2.50;1.87;;;26.10;99.90;;;;;;4171615;28;20333;-78
2023/08/13 09:57:53;;;;;;;2.13;1.80;;;26.10;99.90;;;;;;4174331;28;20288;-78
2023/08/13 09:59:57;;;;;;;3.83;1.77;;;26.20;99.90;;;;;;4169217;28;20218;-76
2023/08/13 10:02:06;;;;;;;3.93;2.00;;;26.20;99.90;;;;;;4171785;28;20321;-78
2023/08/13 10:04:09;;;;;;;1.80;1.60;;;26.20;99.90;;;;;;4170587;28;20715;-78
2023/08/13 10:06:11;;;;;;;3.03;2.10;;;26.30;99.90;;;;;;4171060;28;20254;-77
2023/08/13 10:08:15;;;;;;;2.37;1.63;;;26.30;99.90;;;;;;4173058;28;20289;-77
2023/08/13 10:10:17;;;;;;;2.73;1.70;;;26.40;99.90;;;;;;4171170;28;20217;-78
2023/08/13 10:12:20;;;;;;;2.63;1.60;;;26.50;99.90;;;;;;4169904;28;20206;-79
2023/08/13 10:14:24;;;;;;;2.50;1.87;;;26.60;99.90;;;;;;4174133;28;20707;-77
2023/08/13 10:16:27;;;;;;;2.80;1.83;;;26.70;99.90;;;;;;4170955;28;20245;-77
2023/08/13 10:18:30;;;;;;;2.70;1.63;;;26.70;99.90;;;;;;4174719;28;20580;-75
2023/08/13 10:20:32;;;;;;;3.43;1.90;;;26.80;99.90;;;;;;4173431;28;20850;-76
2023/08/13 10:22:36;;;;;;;3.93;1.80;;;26.80;99.90;;;;;;4170064;28;20207;-76
2023/08/13 10:24:39;;;;;;;3.30;1.67;;;26.80;99.90;;;;;;4168091;28;20211;-78
2023/08/13 10:26:42;;;;;;;1.90;1.50;;;26.80;99.90;;;;;;4171517;28;20297;-77
2023/08/13 10:28:53;;;;;;;2.83;1.60;;;26.80;99.90;;;;;;4170123;28;20214;-76
2023/08/13 10:31:27;;;;;;;2.83;1.70;;;26.80;99.90;;;;;;4170557;28;20213;-78
2023/08/13 10:33:36;;;;;;;3.83;1.90;;;26.90;99.90;;;;;;4168836;28;20601;-77
2023/08/13 10:35:39;;;;;;;2.73;1.40;;;27.00;99.90;;;;;;4168759;28;20225;-79
2023/08/13 10:37:50;;;;;;;1.87;1.47;;;27.10;99.90;;;;;;4173060;28;20214;-78
2023/08/13 10:40:08;;;;;;;3.00;1.47;;;27.20;99.90;;;;;;4168360;28;20244;-79
2023/08/13 10:42:46;;;;;;;2.27;1.53;;;27.30;99.90;;;;;;4165252;28;20597;-78
2023/08/13 10:44:49;;;;;;;2.40;1.50;;;27.40;99.90;;;;;;4174742;28;20268;-79